Time;durP1;ratioP1;P1;durP2;ratioP2;P2;SDS_P1;SDS_P2;PMS_P1;PMS_P2;Temp;Humidity;BMP_temperature;BMP_pressure;BME280_temperature;BME280_humidity;BME280_pressure;Samples;Min_cycle;Max_cycle;Signal;HPM_P1;HPM_P2
2021/06/28 00:02:46;;;;;;;6.20;5.60;;;;;;;23.27;55.78;101540.16;6190401;28;20237;-64
2021/06/28 00:06:07;;;;;;;6.65;6.15;;;;;;;23.27;55.39;101545.47;6189537;28;20237;-65
2021/06/28 00:09:29;;;;;;;6.05;5.55;;;;;;;23.23;55.56;101543.91;6189488;28;20237;-64
2021/06/28 00:12:53;;;;;;;7.18;6.60;;;;;;;23.24;56.04;101545.59;6189732;28;20245;-65
2021/06/28 00:16:14;;;;;;;7.47;6.47;;;;;;;23.16;56.24;101555.78;6194910;28;20229;-65
2021/06/28 00:19:35;;;;;;;6.47;5.97;;;;;;;23.16;55.96;101546.00;6185613;28;20229;-65
2021/06/28 00:22:56;;;;;;;7.30;6.70;;;;;;;23.00;56.48;101553.84;6191484;28;20233;-64
2021/06/28 00:26:19;;;;;;;6.65;6.15;;;;;;;23.05;56.65;101547.47;6196387;28;20229;-65
2021/06/28 00:29:39;;;;;;;5.55;5.03;;;;;;;23.06;56.09;101552.72;6168182;28;20510;-65
2021/06/28 00:33:01;;;;;;;5.68;5.28;;;;;;;22.94;56.81;101548.00;6184153;28;22028;-66
2021/06/28 00:36:22;;;;;;;6.55;5.95;;;;;;;23.03;56.37;101562.63;6184477;28;20238;-65
2021/06/28 00:39:43;;;;;;;7.40;6.70;;;;;;;23.04;56.49;101564.38;6196307;28;20226;-64
2021/06/28 00:43:06;;;;;;;5.90;5.40;;;;;;;22.88;57.00;101564.25;6178110;28;20233;-65
2021/06/28 00:46:27;;;;;;;6.95;6.28;;;;;;;23.14;55.99;101566.47;6196744;28;20222;-66
2021/06/28 00:49:48;;;;;;;6.70;6.07;;;;;;;23.06;56.22;101554.53;6182992;28;20512;-65
2021/06/28 00:53:11;;;;;;;7.10;6.50;;;;;;;23.07;56.36;101564.19;6188600;28;20598;-64
2021/06/28 00:56:32;;;;;;;6.97;6.05;;;;;;;22.91;56.56;101564.91;6194379;28;20229;-65
2021/06/28 00:59:55;;;;;;;7.32;6.68;;;;;;;22.90;56.58;101563.22;6183269;28;20234;-64
2021/06/28 01:03:16;;;;;;;6.25;5.85;;;;;;;22.78;57.01;101569.13;6186961;28;20253;-64
2021/06/28 01:06:37;;;;;;;6.60;5.90;;;;;;;22.89;56.64;101565.94;6187081;28;20226;-66
2021/06/28 01:09:58;;;;;;;6.28;5.78;;;;;;;22.60;57.59;101554.94;6189897;28;20333;-66
2021/06/28 01:13:19;;;;;;;6.43;5.93;;;;;;;22.64;57.72;101556.50;6190817;28;20242;-65
2021/06/28 01:16:42;;;;;;;6.38;5.88;;;;;;;22.75;57.23;101553.34;6187471;28;20314;-64
2021/06/28 01:20:07;;;;;;;6.68;6.18;;;;;;;22.69;57.14;101558.94;6192093;28;20591;-65
2021/06/28 01:23:31;;;;;;;6.43;5.93;;;;;;;22.78;56.87;101558.50;6185080;28;20595;-64
2021/06/28 01:26:52;;;;;;;6.68;6.10;;;;;;;22.76;56.76;101563.00;6168312;28;20249;-64
2021/06/28 01:30:17;;;;;;;7.32;6.72;;;;;;;22.60;57.53;101550.50;6187287;28;20250;-65
2021/06/28 01:33:39;;;;;;;6.72;6.22;;;;;;;22.56;57.18;101548.91;6184448;28;20234;-64
2021/06/28 01:37:12;;;;;;;6.97;6.38;;;;;;;22.76;56.82;101555.03;6176751;28;20226;-65
2021/06/28 01:40:35;;;;;;;6.63;6.03;;;;;;;22.84;56.37;101550.25;6173765;28;20229;-65
2021/06/28 01:43:56;;;;;;;7.53;6.93;;;;;;;22.69;56.94;101561.59;6171452;28;20233;-65
2021/06/28 01:47:16;;;;;;;7.00;6.15;;;;;;;22.75;56.32;101553.34;6184105;28;20233;-64
2021/06/28 01:50:39;;;;;;;7.25;6.65;;;;;;;22.72;56.54;101550.81;6187184;28;20226;-65
2021/06/28 01:54:00;;;;;;;6.38;5.88;;;;;;;22.38;57.74;101550.66;6189237;28;20254;-65
2021/06/28 01:57:22;;;;;;;7.82;7.15;;;;;;;22.60;56.40;101550.50;6179842;28;20982;-64
2021/06/28 02:00:45;;;;;;;7.70;7.10;;;;;;;22.34;57.84;101551.72;6184168;28;20233;-64
2021/06/28 02:04:07;;;;;;;7.22;6.63;;;;;;;22.40;57.44;101554.09;6188541;28;20550;-65
2021/06/28 02:07:28;;;;;;;7.65;6.97;;;;;;;22.41;57.44;101554.94;6184904;28;20316;-65
2021/06/28 02:10:52;;;;;;;7.78;7.07;;;;;;;22.30;57.70;101546.66;6185819;28;20230;-66
2021/06/28 02:14:14;;;;;;;7.57;6.97;;;;;;;22.20;57.90;101536.41;6183298;28;20246;-65
2021/06/28 02:17:35;;;;;;;8.10;7.40;;;;;;;22.12;58.20;101527.97;6185171;28;20563;-66
2021/06/28 02:20:58;;;;;;;7.45;6.82;;;;;;;22.27;57.73;101528.22;6182324;28;20248;-65
2021/06/28 02:24:20;;;;;;;7.50;6.80;;;;;;;22.36;57.06;101515.38;6185241;28;20234;-65
2021/06/28 02:27:42;;;;;;;7.43;6.82;;;;;;;22.36;57.19;101509.22;6187499;28;20325;-64
2021/06/28 02:31:06;;;;;;;7.40;6.88;;;;;;;22.21;57.80;101519.56;6183164;28;20218;-65
2021/06/28 02:34:27;;;;;;;7.88;7.25;;;;;;;22.02;58.11;101516.94;6188134;28;20229;-65
2021/06/28 02:37:48;;;;;;;8.30;7.60;;;;;;;21.90;58.72;101521.91;6174540;28;21992;-64
2021/06/28 02:41:10;;;;;;;7.35;6.65;;;;;;;21.73;59.20;101512.94;6186876;28;20225;-66
2021/06/28 02:44:31;;;;;;;8.07;7.38;;;;;;;22.01;58.43;101517.00;6182535;28;20339;-66
2021/06/28 02:47:53;;;;;;;8.10;7.40;;;;;;;22.13;57.80;101513.75;6189921;28;20245;-65
2021/06/28 02:51:15;;;;;;;7.47;6.97;;;;;;;22.02;58.18;101516.03;6187965;28;20525;-65
2021/06/28 02:54:36;;;;;;;7.78;7.07;;;;;;;22.10;57.68;101513.91;6185849;28;20226;-65
2021/06/28 02:57:57;;;;;;;8.20;7.38;;;;;;;21.90;58.46;101509.50;6177085;28;20238;-65
2021/06/28 03:01:21;;;;;;;7.90;7.20;;;;;;;22.07;57.63;101507.88;6182740;28;20225;-65
2021/06/28 03:04:43;;;;;;;8.88;8.13;;;;;;;22.17;57.52;101509.19;6176319;28;20747;-64
2021/06/28 03:08:06;;;;;;;8.18;7.47;;;;;;;22.09;57.56;101506.88;6188080;28;20311;-66
2021/06/28 03:11:28;;;;;;;8.43;7.68;;;;;;;21.69;58.64;101510.47;6180987;28;20234;-64
2021/06/28 03:14:48;;;;;;;9.05;8.25;;;;;;;21.50;59.38;101513.97;6189053;28;20302;-65
2021/06/28 03:18:10;;;;;;;10.43;8.48;;;;;;;21.64;59.08;101508.06;6194130;28;20237;-66
2021/06/28 03:21:32;;;;;;;9.93;9.05;;;;;;;21.25;60.20;101516.78;6191827;28;20222;-64
2021/06/28 03:24:53;;;;;;;12.00;10.77;;;;;;;21.48;59.75;101520.25;6185245;28;20233;-65
2021/06/28 03:28:14;;;;;;;13.50;12.35;;;;;;;21.13;60.69;101522.56;6191780;28;20237;-65
2021/06/28 03:31:35;;;;;;;12.63;11.40;;;;;;;21.28;60.21;101523.72;6187166;28;20968;-64
2021/06/28 03:34:56;;;;;;;11.20;10.18;;;;;;;21.09;60.69;101527.13;6200285;28;20233;-64
2021/06/28 03:38:18;;;;;;;10.38;9.55;;;;;;;21.61;59.19;101524.94;6191061;28;21102;-66
2021/06/28 03:41:39;;;;;;;9.43;8.63;;;;;;;21.96;57.94;101534.88;6189660;28;20552;-65
2021/06/28 03:45:00;;;;;;;9.13;8.32;;;;;;;22.15;57.24;101535.75;6192817;28;20265;-65
2021/06/28 03:48:21;;;;;;;8.82;8.13;;;;;;;22.14;57.21;101531.41;6187964;28;20233;-65
2021/06/28 03:51:42;;;;;;;14.73;13.57;;;;;;;22.31;56.61;101533.28;6185332;28;20238;-65
2021/06/28 03:55:06;;;;;;;27.20;25.08;;;;;;;21.73;58.63;101526.19;6183384;28;20234;-66
2021/06/28 03:58:27;;;;;;;17.17;15.88;;;;;;;21.97;57.72;101531.31;6188285;28;20230;-65
2021/06/28 04:01:49;;;;;;;11.23;10.32;;;;;;;22.02;57.59;101529.31;6182346;28;20233;-64
2021/06/28 04:05:12;;;;;;;10.50;9.55;;;;;;;21.86;58.29;101525.63;6185373;28;20238;-66
2021/06/28 04:08:33;;;;;;;9.35;8.48;;;;;;;22.12;57.49;101527.97;6186212;28;20226;-65
2021/06/28 04:11:56;;;;;;;9.35;8.48;;;;;;;21.94;58.36;101523.50;6191214;28;20496;-66
2021/06/28 04:15:17;;;;;;;8.80;7.93;;;;;;;21.94;57.96;101526.16;6192892;28;20241;-66
2021/06/28 04:18:39;;;;;;;7.95;7.25;;;;;;;21.70;58.61;101523.69;6183625;28;20521;-66
2021/06/28 04:22:00;;;;;;;9.38;8.43;;;;;;;22.25;57.50;101519.47;6188641;28;20683;-66
2021/06/28 04:25:23;;;;;;;18.05;16.45;;;;;;;22.44;56.66;101522.97;6185177;28;20226;-65
2021/06/28 04:28:45;;;;;;;10.35;9.45;;;;;;;22.70;56.05;101520.84;6184985;28;20233;-65
2021/06/28 04:32:06;;;;;;;9.30;8.32;;;;;;;22.99;55.07;101514.97;6187237;28;20612;-64
2021/06/28 04:35:29;;;;;;;8.82;8.00;;;;;;;22.93;55.26;101507.28;6182731;28;20245;-66
2021/06/28 04:38:50;;;;;;;7.95;7.18;;;;;;;22.89;55.26;101508.38;6192752;28;20230;-65
2021/06/28 04:42:11;;;;;;;8.07;7.38;;;;;;;23.09;54.52;101512.72;6187072;28;20305;-65
2021/06/28 04:45:34;;;;;;;9.43;8.63;;;;;;;23.13;54.67;101510.78;6185313;28;20249;-65
2021/06/28 04:48:55;;;;;;;10.52;9.70;;;;;;;22.95;54.88;101504.56;6187800;28;20729;-66
2021/06/28 04:52:16;;;;;;;9.88;9.18;;;;;;;23.09;54.65;101507.41;6187740;28;20552;-65
2021/06/28 04:55:37;;;;;;;10.50;9.45;;;;;;;22.83;55.56;101503.38;6188769;28;20229;-66
2021/06/28 04:58:58;;;;;;;9.98;9.10;;;;;;;22.78;55.61;101505.41;6193636;28;20222;-65
2021/06/28 05:02:20;;;;;;;9.57;7.97;;;;;;;22.91;55.28;101500.34;6180567;28;20878;-65
2021/06/28 05:05:41;;;;;;;7.90;7.25;;;;;;;22.95;55.29;101502.78;6183198;28;20789;-65
2021/06/28 05:09:02;;;;;;;9.50;8.60;;;;;;;23.24;54.47;101510.22;6185611;28;20511;-65
2021/06/28 05:12:23;;;;;;;8.38;7.63;;;;;;;23.27;54.76;101513.59;6188498;28;20250;-65
2021/06/28 05:15:43;;;;;;;9.13;7.85;;;;;;;23.46;54.13;101507.28;6186558;28;20241;-66
2021/06/28 05:19:06;;;;;;;8.38;7.55;;;;;;;23.84;53.11;101507.09;6179697;28;20257;-66
2021/06/28 05:22:27;;;;;;;8.65;7.90;;;;;;;23.61;53.10;101506.50;6188720;28;20229;-66
2021/06/28 05:25:49;;;;;;;8.10;7.40;;;;;;;23.49;53.94;101499.19;6186576;28;20237;-65
2021/06/28 05:29:11;;;;;;;8.57;7.78;;;;;;;24.12;52.29;101501.16;6179124;28;20234;-68
2021/06/28 05:32:32;;;;;;;7.95;7.22;;;;;;;24.01;52.20;101503.53;6188502;28;20233;-67
2021/06/28 05:35:54;;;;;;;8.45;7.70;;;;;;;23.51;53.66;101495.50;6184226;28;20261;-67
2021/06/28 05:39:15;;;;;;;6.82;6.20;;;;;;;24.09;52.50;101501.31;6182776;28;20241;-66
2021/06/28 05:42:36;;;;;;;8.55;6.47;;;;;;;24.28;51.74;101506.47;6177315;28;20233;-67
2021/06/28 05:45:57;;;;;;;8.68;6.97;;;;;;;24.39;51.92;101498.75;6183223;28;20229;-66
2021/06/28 05:49:18;;;;;;;7.60;6.93;;;;;;;24.57;50.79;101502.19;6180121;28;20233;-63
2021/06/28 05:52:41;;;;;;;7.50;6.25;;;;;;;24.65;51.31;101501.75;6185519;28;20265;-66
2021/06/28 05:56:04;;;;;;;8.73;7.97;;;;;;;24.20;51.72;101490.09;6182217;28;20352;-67
2021/06/28 05:59:28;;;;;;;12.57;7.03;;;;;;;24.31;52.32;101500.97;6150877;28;20320;-66
2021/06/28 06:02:50;;;;;;;7.60;5.93;;;;;;;24.91;50.21;101500.22;6167105;28;20588;-65
2021/06/28 06:06:11;;;;;;;8.38;7.57;;;;;;;24.98;50.56;101500.75;6186927;28;20325;-64
2021/06/28 06:09:33;;;;;;;7.43;6.90;;;;;;;24.81;50.43;101491.06;6180830;28;20533;-65
2021/06/28 06:12:54;;;;;;;6.70;6.05;;;;;;;24.96;50.16;101498.16;6183832;28;20233;-67
2021/06/28 06:16:15;;;;;;;12.23;10.98;;;;;;;25.28;49.02;101492.72;6183296;28;20234;-66
2021/06/28 06:19:36;;;;;;;7.90;7.20;;;;;;;24.89;50.14;101497.69;6185910;28;20225;-65
2021/06/28 06:22:57;;;;;;;6.90;6.13;;;;;;;24.44;50.40;101501.13;6171822;28;20614;-65
2021/06/28 06:26:20;;;;;;;5.40;4.97;;;;;;;24.82;50.82;101509.63;6183221;28;20624;-63
2021/06/28 06:29:43;;;;;;;6.68;6.07;;;;;;;25.27;49.58;101507.88;6184080;28;20261;-62
2021/06/28 06:33:05;;;;;;;6.45;5.95;;;;;;;25.31;49.30;101508.56;6178790;28;20610;-64
2021/06/28 06:36:26;;;;;;;6.72;6.13;;;;;;;24.85;49.88;101506.75;6184312;28;20249;-64
2021/06/28 06:39:47;;;;;;;5.13;4.72;;;;;;;25.05;50.47;101504.78;6185046;28;20229;-65
2021/06/28 06:43:09;;;;;;;5.25;4.85;;;;;;;25.60;49.05;101506.78;6174560;28;20241;-64
2021/06/28 06:46:30;;;;;;;7.65;5.60;;;;;;;26.12;48.07;101510.69;6174925;28;20261;-67
2021/06/28 06:49:52;;;;;;;5.43;4.68;;;;;;;25.91;48.43;101518.25;6181040;28;20623;-67
2021/06/28 06:53:12;;;;;;;5.07;4.78;;;;;;;26.13;47.59;101513.28;6187046;28;20238;-63
2021/06/28 06:56:33;;;;;;;5.78;5.30;;;;;;;25.83;47.64;101520.50;6176835;28;20257;-64
2021/06/28 06:59:56;;;;;;;5.68;5.18;;;;;;;26.38;47.79;101511.66;6180453;28;20237;-61
2021/06/28 07:03:16;;;;;;;8.93;8.10;;;;;;;26.30;49.12;101511.31;6189530;28;20517;-65
2021/06/28 07:06:37;;;;;;;7.07;6.40;;;;;;;26.47;46.99;101515.56;6180536;28;20225;-68
2021/06/28 07:09:58;;;;;;;5.97;5.47;;;;;;;26.37;46.43;101512.66;6183630;28;20234;-66
2021/06/28 07:13:19;;;;;;;13.07;12.10;;;;;;;26.90;46.26;101499.41;6175234;28;20234;-64
2021/06/28 07:16:41;;;;;;;15.45;14.35;;;;;;;27.33;45.77;101511.69;6174347;28;20241;-66
2021/06/28 07:20:03;;;;;;;10.57;9.73;;;;;;;27.28;46.25;101510.19;6178619;28;20624;-64
2021/06/28 07:23:23;;;;;;;8.10;7.25;;;;;;;27.41;44.84;101512.88;6178957;28;20242;-65
2021/06/28 07:26:45;;;;;;;8.60;6.57;;;;;;;27.46;44.17;101510.72;6182976;28;20245;-66
2021/06/28 07:30:09;;;;;;;5.43;5.03;;;;;;;27.25;44.33;101512.22;6183551;28;20654;-66
2021/06/28 07:33:38;;;;;;;5.75;5.05;;;;;;;27.12;44.27;101522.84;6181444;28;20260;-66
2021/06/28 07:36:59;;;;;;;5.43;5.10;;;;;;;26.85;43.81;101515.75;6179827;28;20252;-65
2021/06/28 07:40:20;;;;;;;5.25;4.25;;;;;;;27.06;43.96;101518.81;6179722;28;20241;-67
2021/06/28 07:43:41;;;;;;;5.68;5.28;;;;;;;27.28;43.17;101518.22;6176064;28;20671;-68
2021/06/28 07:47:01;;;;;;;4.82;4.47;;;;;;;27.05;43.60;101516.22;6184847;28;20229;-66
2021/06/28 07:50:24;;;;;;;6.07;5.13;;;;;;;26.13;43.38;101515.94;6183752;28;20226;-68
2021/06/28 07:53:45;;;;;;;5.05;4.65;;;;;;;25.94;45.41;101515.41;6176638;28;20242;-64
2021/06/28 07:57:06;;;;;;;5.65;5.18;;;;;;;26.29;44.51;101512.28;6181100;28;20238;-67
2021/06/28 08:00:28;;;;;;;8.73;4.90;;;;;;;26.26;43.60;101505.31;6182070;28;20261;-67
2021/06/28 08:03:49;;;;;;;5.50;5.10;;;;;;;26.30;44.17;101503.31;6185909;28;20238;-64
2021/06/28 08:07:11;;;;;;;6.10;5.28;;;;;;;26.29;43.97;101507.81;6190176;28;20246;-65
2021/06/28 08:10:32;;;;;;;6.35;4.45;;;;;;;26.29;41.69;101491.78;6173678;28;20245;-66
2021/06/28 08:13:55;;;;;;;4.85;4.55;;;;;;;26.83;42.13;101488.28;6194840;28;20332;-67
2021/06/28 08:17:16;;;;;;;6.25;4.72;;;;;;;27.42;41.21;101487.84;6181762;28;20233;-69
2021/06/28 08:20:37;;;;;;;5.10;4.57;;;;;;;26.40;41.19;101488.41;6184613;28;20529;-68
2021/06/28 08:24:00;;;;;;;4.75;4.30;;;;;;;27.05;39.97;101484.16;6176060;28;20233;-67
2021/06/28 08:27:21;;;;;;;4.40;4.00;;;;;;;27.59;40.42;101484.00;6192057;28;20229;-66
2021/06/28 08:30:42;;;;;;;4.93;4.35;;;;;;;27.95;39.25;101482.34;6174772;28;20254;-65
2021/06/28 08:34:03;;;;;;;6.20;4.15;;;;;;;27.82;39.53;101482.34;6185462;28;20238;-68
2021/06/28 08:37:24;;;;;;;3.70;3.47;;;;;;;28.21;38.08;101471.59;6178079;28;20238;-66
2021/06/28 08:40:48;;;;;;;5.03;4.57;;;;;;;28.02;38.46;101467.56;6184829;28;20238;-67
2021/06/28 08:44:09;;;;;;;4.93;4.53;;;;;;;27.78;39.51;101470.16;6195114;28;20230;-67
2021/06/28 08:47:30;;;;;;;3.90;3.70;;;;;;;28.43;39.05;101473.53;6182932;28;20845;-68
2021/06/28 08:50:54;;;;;;;4.82;4.35;;;;;;;27.82;38.79;101473.44;6189223;28;20233;-69
2021/06/28 08:54:15;;;;;;;5.95;4.75;;;;;;;27.74;38.58;101465.97;6183659;28;20242;-68
2021/06/28 08:57:38;;;;;;;5.88;4.78;;;;;;;27.84;37.54;101459.03;6183251;28;20249;-71
2021/06/28 09:00:59;;;;;;;6.40;5.22;;;;;;;27.77;37.66;101468.44;6186197;28;20234;-69
2021/06/28 09:04:21;;;;;;;4.68;3.90;;;;;;;27.21;38.07;101473.25;6186514;28;20233;-73
2021/06/28 09:07:42;;;;;;;5.10;4.60;;;;;;;27.16;38.74;101456.66;6185505;28;20229;-67
2021/06/28 09:11:04;;;;;;;4.93;4.28;;;;;;;28.21;37.19;101458.19;6186444;28;20241;-68
2021/06/28 09:14:26;;;;;;;4.47;4.15;;;;;;;27.55;37.04;101458.44;6184506;28;20226;-54
2021/06/28 09:17:47;;;;;;;4.68;4.20;;;;;;;27.85;38.11;101460.72;6180185;28;20261;-48
2021/06/28 09:21:09;;;;;;;6.03;4.57;;;;;;;28.18;37.58;101459.25;6180750;28;20226;-48
2021/06/28 09:24:36;;;;;;;4.78;4.38;;;;;;;28.51;35.79;101454.19;6184503;28;20225;-51
2021/06/28 09:27:57;;;;;;;4.95;4.07;;;;;;;28.08;36.51;101456.41;6183246;28;20253;-50
2021/06/28 09:31:33;;;;;;;7.35;4.93;;;;;;;27.95;36.27;101455.56;6186652;28;20241;-48
2021/06/28 09:35:00;;;;;;;4.10;3.67;;;;;;;28.99;35.58;101454.16;6183570;28;20631;-51
2021/06/28 09:38:31;;;;;;;4.72;4.32;;;;;;;27.27;37.69;101452.31;6178870;28;20336;-50
2021/06/28 09:41:58;;;;;;;3.80;3.60;;;;;;;27.82;37.46;101447.56;6185552;28;20256;-49
2021/06/28 09:45:21;;;;;;;4.03;3.72;;;;;;;28.39;36.00;101456.81;6176782;28;20234;-47
2021/06/28 09:48:48;;;;;;;5.00;4.53;;;;;;;28.14;35.72;101457.78;6184108;28;20325;-47
2021/06/28 09:52:10;;;;;;;5.88;3.97;;;;;;;28.94;35.11;101456.31;6184608;28;20234;-57
2021/06/28 09:55:35;;;;;;;4.30;4.00;;;;;;;28.77;34.01;101454.91;6192730;28;20250;-59
2021/06/28 09:58:55;;;;;;;3.70;3.50;;;;;;;27.96;36.07;101449.28;6182474;28;20237;-59
2021/06/28 10:02:20;;;;;;;4.45;4.15;;;;;;;29.01;35.91;101446.84;6189767;28;20233;-60
2021/06/28 10:05:57;;;;;;;4.22;3.92;;;;;;;28.71;34.37;101448.19;6164390;28;20573;-59
2021/06/28 10:09:18;;;;;;;4.28;3.80;;;;;;;29.06;33.88;101439.28;6173742;28;20631;-58
2021/06/28 10:12:41;;;;;;;4.18;3.55;;;;;;;28.51;34.66;101444.34;6177933;28;20602;-58
2021/06/28 10:16:02;;;;;;;6.63;3.75;;;;;;;28.91;34.07;101440.50;6183444;28;20237;-60
2021/06/28 10:19:23;;;;;;;13.88;4.18;;;;;;;28.43;34.27;101441.38;6188243;28;20245;-55
2021/06/28 10:22:47;;;;;;;3.70;3.50;;;;;;;28.92;34.84;101439.50;6173131;28;20233;-49
2021/06/28 10:26:09;;;;;;;4.85;4.32;;;;;;;28.90;33.87;101434.25;6177300;28;20234;-55
2021/06/28 10:29:30;;;;;;;4.15;3.80;;;;;;;28.90;33.66;101433.41;6181080;28;20983;-50
2021/06/28 10:32:58;;;;;;;5.45;4.25;;;;;;;28.83;33.42;101428.53;6183642;28;20525;-53
2021/06/28 10:36:20;;;;;;;4.40;4.10;;;;;;;29.79;32.10;101421.06;6184869;28;20531;-51
2021/06/28 10:39:56;;;;;;;4.38;4.07;;;;;;;28.19;34.27;101428.84;6180636;28;20257;-49
2021/06/28 10:43:26;;;;;;;4.00;3.63;;;;;;;28.86;32.64;101430.09;6186146;28;20245;-50
2021/06/28 10:46:49;;;;;;;6.90;3.95;;;;;;;29.08;32.36;101429.31;6183634;28;20545;-52
2021/06/28 10:50:10;;;;;;;4.32;4.03;;;;;;;29.55;32.73;101424.72;6176932;28;20229;-53
2021/06/28 10:54:00;;;;;;;4.05;3.75;;;;;;;29.90;31.05;101429.13;6181169;28;20671;-54
2021/06/28 10:57:39;;;;;;;3.05;2.85;;;;;;;29.59;31.29;101425.34;6183634;28;20253;-55
2021/06/28 11:01:06;;;;;;;3.92;3.67;;;;;;;29.63;31.17;101427.66;6177687;28;20587;-50
2021/06/28 11:04:29;;;;;;;3.65;3.03;;;;;;;30.21;29.35;101422.06;6182931;28;20245;-50
2021/06/28 11:07:50;;;;;;;3.55;3.25;;;;;;;30.16;29.26;101434.16;6186564;28;20234;-50
2021/06/28 11:11:50;;;;;;;3.33;3.10;;;;;;;30.72;29.37;101425.91;6191827;28;20433;-55
2021/06/28 11:15:26;;;;;;;3.05;2.80;;;;;;;30.77;28.62;101428.22;6183864;28;20238;-52
2021/06/28 11:18:47;;;;;;;3.03;2.83;;;;;;;30.81;29.41;101427.81;6186589;28;20233;-51
2021/06/28 11:22:46;;;;;;;6.63;4.00;;;;;;;31.40;28.00;101406.63;6182899;28;20237;-53
2021/06/28 11:26:07;;;;;;;3.10;2.80;;;;;;;31.59;28.23;101408.56;6179404;28;20312;-53
2021/06/28 11:29:49;;;;;;;4.30;3.90;;;;;;;31.04;29.33;101414.25;6185761;28;20460;-49
2021/06/28 11:33:13;;;;;;;3.92;3.72;;;;;;;30.70;28.75;101409.06;6179459;28;20241;-51
2021/06/28 11:36:41;;;;;;;4.07;3.78;;;;;;;30.64;29.91;101409.56;6185716;28;20229;-50
2021/06/28 11:40:06;;;;;;;5.85;5.35;;;;;;;31.85;28.45;101403.53;6191441;28;20316;-53
2021/06/28 11:43:34;;;;;;;3.53;3.22;;;;;;;31.10;29.23;101412.88;6180377;28;20229;-53
2021/06/28 11:46:55;;;;;;;3.85;3.60;;;;;;;30.74;30.17;101415.88;6194978;28;20232;-54
2021/06/28 11:50:35;;;;;;;3.85;3.55;;;;;;;29.31;32.26;101405.22;6187722;28;20619;-50
2021/06/28 11:54:00;;;;;;;3.78;3.47;;;;;;;30.90;30.87;101411.91;6188745;28;20237;-51
2021/06/28 11:57:22;;;;;;;3.50;3.28;;;;;;;31.09;29.58;101395.88;6192065;28;20233;-54
2021/06/28 12:00:43;;;;;;;4.45;4.13;;;;;;;31.81;29.49;101394.03;6186915;28;20245;-55
2021/06/28 12:04:06;;;;;;;3.92;3.60;;;;;;;31.42;29.87;101393.03;6177033;28;20237;-53
2021/06/28 12:07:29;;;;;;;6.15;5.75;;;;;;;31.73;28.70;101393.88;6179338;28;20234;-52
2021/06/28 12:10:55;;;;;;;3.95;3.65;;;;;;;32.30;27.99;101394.97;6184022;28;20234;-50
2021/06/28 12:14:34;;;;;;;3.40;3.05;;;;;;;31.71;26.85;101394.00;6183297;28;20230;-52
2021/06/28 12:17:55;;;;;;;3.90;3.50;;;;;;;31.85;28.07;101389.22;6186075;28;20245;-51
2021/06/28 12:21:28;;;;;;;3.45;3.25;;;;;;;31.75;28.54;101381.97;6185013;28;20803;-48
2021/06/28 12:24:56;;;;;;;4.72;3.45;;;;;;;32.26;28.49;101387.28;6181283;28;20229;-53
2021/06/28 12:28:27;;;;;;;4.53;4.13;;;;;;;32.25;28.14;101375.69;6183915;28;20230;-51
2021/06/28 12:31:48;;;;;;;4.30;4.00;;;;;;;32.38;28.01;101383.47;6185320;28;20222;-49
2021/06/28 12:35:11;;;;;;;3.85;3.47;;;;;;;33.13;26.47;101379.13;6188705;28;20253;-51
2021/06/28 12:38:32;;;;;;;4.38;3.55;;;;;;;32.81;27.00;101378.63;6184257;28;21104;-51
2021/06/28 12:42:09;;;;;;;3.20;3.00;;;;;;;31.51;27.82;101373.44;6187808;28;20250;-50
2021/06/28 12:45:32;;;;;;;5.40;3.97;;;;;;;30.74;28.71;101372.84;6177714;28;20285;-56
2021/06/28 12:48:52;;;;;;;3.67;3.47;;;;;;;31.43;27.86;101371.38;6174188;28;20541;-56
2021/06/28 12:52:41;;;;;;;3.30;3.10;;;;;;;31.14;27.76;101364.06;6178141;28;20233;-53
2021/06/28 12:56:06;;;;;;;4.13;3.83;;;;;;;31.50;27.24;101369.88;6176747;28;20226;-48
2021/06/28 12:59:37;;;;;;;4.55;4.10;;;;;;;31.38;28.52;101361.00;6179805;28;20250;-52
2021/06/28 13:03:01;;;;;;;3.92;3.63;;;;;;;32.30;27.25;101359.94;6181750;28;20248;-47
2021/06/28 13:06:22;;;;;;;4.05;3.80;;;;;;;32.46;27.50;101367.44;6185472;28;20242;-46
2021/06/28 13:09:57;;;;;;;4.32;4.03;;;;;;;32.83;26.50;101347.81;6186995;28;20230;-52
2021/06/28 13:13:20;;;;;;;3.33;3.03;;;;;;;33.45;26.23;101348.13;6187401;28;20253;-47
2021/06/28 13:16:52;;;;;;;3.15;2.95;;;;;;;32.80;25.70;101347.25;6176520;28;20226;-50
2021/06/28 13:20:20;;;;;;;3.20;2.90;;;;;;;33.94;25.89;101351.38;6175980;28;20344;-50
2021/06/28 13:23:41;;;;;;;4.03;3.72;;;;;;;33.78;24.71;101339.59;6174540;28;21034;-51
2021/06/28 13:27:04;;;;;;;3.20;3.00;;;;;;;34.50;22.95;101341.22;6174650;28;20576;-51
2021/06/28 13:30:28;;;;;;;3.40;3.20;;;;;;;34.90;21.66;101336.28;6172307;28;20261;-53
2021/06/28 13:34:10;;;;;;;4.97;3.65;;;;;;;34.98;21.49;101332.78;6180572;28;20318;-48
2021/06/28 13:37:32;;;;;;;2.58;2.35;;;;;;;35.65;20.78;101324.72;6169256;28;20233;-50
2021/06/28 13:40:58;;;;;;;3.10;2.90;;;;;;;38.34;19.06;101325.91;6185149;28;20234;-49
2021/06/28 13:44:19;;;;;;;2.80;2.60;;;;;;;36.74;19.29;101320.03;6181226;28;20334;-52
2021/06/28 13:47:53;;;;;;;4.00;3.80;;;;;;;35.79;20.57;101321.41;6180094;28;20313;-52
2021/06/28 13:51:16;;;;;;;2.90;2.70;;;;;;;36.67;20.53;101317.16;6182084;28;20357;-52
2021/06/28 13:54:37;;;;;;;3.33;3.13;;;;;;;36.89;20.56;101321.00;6178001;28;20317;-52
2021/06/28 13:57:59;;;;;;;3.25;3.05;;;;;;;36.36;20.89;101308.91;6180651;28;20234;-49
2021/06/28 14:01:20;;;;;;;3.35;3.15;;;;;;;36.77;19.63;101308.84;6188906;28;20236;-48
2021/06/28 14:04:41;;;;;;;3.30;3.10;;;;;;;33.67;22.63;101310.94;6186948;28;20234;-50
2021/06/28 14:08:04;;;;;;;3.70;3.50;;;;;;;34.93;22.58;101308.06;6184606;28;20229;-51
2021/06/28 14:11:25;;;;;;;4.13;3.72;;;;;;;34.47;22.78;101302.84;6187096;28;20301;-53
2021/06/28 14:14:45;;;;;;;3.47;3.17;;;;;;;34.61;22.24;101304.97;6186999;28;20232;-51
2021/06/28 14:18:07;;;;;;;2.95;2.78;;;;;;;33.26;23.82;101300.50;6182097;28;20493;-52
2021/06/28 14:21:30;;;;;;;4.10;3.90;;;;;;;34.74;22.77;101298.31;6186528;28;20312;-53
2021/06/28 14:24:52;;;;;;;3.92;3.65;;;;;;;34.61;22.09;101288.75;6189543;28;20222;-54
2021/06/28 14:28:16;;;;;;;2.85;2.65;;;;;;;35.51;22.27;101287.47;6186551;28;20233;-49
2021/06/28 14:31:36;;;;;;;4.15;3.85;;;;;;;35.74;21.93;101283.13;6189140;28;20218;-53
2021/06/28 14:34:57;;;;;;;4.38;4.07;;;;;;;35.26;22.21;101287.41;6182534;28;20513;-52
2021/06/28 14:38:18;;;;;;;9.75;8.85;;;;;;;35.94;21.71;101270.09;6179172;28;20233;-54
2021/06/28 14:41:40;;;;;;;6.03;5.55;;;;;;;35.44;21.50;101277.31;6181784;28;20257;-50
2021/06/28 14:45:01;;;;;;;6.13;5.68;;;;;;;34.85;22.98;101276.41;6182781;28;20756;-48
2021/06/28 14:48:22;;;;;;;7.47;6.75;;;;;;;35.24;22.65;101268.63;6174305;28;20241;-54
2021/06/28 14:51:43;;;;;;;6.07;5.57;;;;;;;35.88;22.16;101266.19;6184826;28;20233;-52
2021/06/28 14:55:05;;;;;;;7.40;6.90;;;;;;;35.18;22.38;101260.31;6186085;28;20233;-48
2021/06/28 14:58:29;;;;;;;6.80;6.28;;;;;;;35.80;21.82;101260.78;6182502;28;20328;-53
2021/06/28 15:01:50;;;;;;;8.43;7.70;;;;;;;36.41;21.75;101254.97;6186490;28;20233;-54
2021/06/28 15:05:11;;;;;;;6.50;6.00;;;;;;;36.47;21.90;101254.31;6184556;28;20229;-50
2021/06/28 15:08:37;;;;;;;11.73;10.88;;;;;;;36.47;21.37;101254.31;6184249;28;20245;-51
2021/06/28 15:11:58;;;;;;;10.00;9.30;;;;;;;36.56;21.76;101247.81;6183596;28;20229;-50
2021/06/28 15:15:20;;;;;;;5.45;5.00;;;;;;;36.59;21.35;101247.47;6185825;28;20606;-48
2021/06/28 15:18:41;;;;;;;3.70;3.50;;;;;;;35.38;22.24;101245.50;6179115;28;20523;-51
2021/06/28 15:22:02;;;;;;;4.28;4.07;;;;;;;35.08;22.25;101236.91;6185172;28;20237;-47
2021/06/28 15:25:25;;;;;;;3.70;3.50;;;;;;;35.48;22.37;101224.50;6178515;28;20238;-50
2021/06/28 15:28:48;;;;;;;6.88;6.40;;;;;;;35.64;22.84;101233.66;6174730;28;20257;-53
2021/06/28 15:32:12;;;;;;;11.93;11.05;;;;;;;35.55;22.61;101240.09;6199309;28;21739;-51
2021/06/28 15:35:33;;;;;;;8.38;5.85;;;;;;;35.01;22.81;101235.03;6185153;28;20623;-51
2021/06/28 15:38:54;;;;;;;4.22;3.83;;;;;;;33.17;24.00;101222.31;6185552;28;20667;-50
2021/06/28 15:42:15;;;;;;;3.78;3.58;;;;;;;33.82;23.84;101222.97;6184692;28;20612;-51
2021/06/28 15:45:36;;;;;;;8.43;7.63;;;;;;;35.17;23.56;101220.72;6183179;28;20241;-51